sensor_id;sensor_type;location;lat;lon;timestamp;P1;durP1;ratioP1;P2;durP2;ratioP2
82288;SDS011;71889;39.264;-120.910;2024-01-15T00:00:51;1.85;;;0.90;;
82288;SDS011;71889;39.264;-120.910;2024-01-15T00:03:18;1.48;;;0.90;;
82288;SDS011;71889;39.264;-120.910;2024-01-15T00:05:44;1.13;;;0.73;;
82288;SDS011;71889;39.264;-120.910;2024-01-15T00:08:11;6.15;;;3.28;;
82288;SDS011;71889;39.264;-120.910;2024-01-15T00:10:38;13.48;;;7.07;;
82288;SDS011;71889;39.264;-120.910;2024-01-15T00:13:06;4.70;;;3.10;;
82288;SDS011;71889;39.264;-120.910;2024-01-15T00:15:33;4.22;;;2.17;;
82288;SDS011;71889;39.264;-120.910;2024-01-15T00:18:00;2.22;;;0.88;;
82288;SDS011;71889;39.264;-120.910;2024-01-15T00:20:26;1.65;;;1.02;;
82288;SDS011;71889;39.264;-120.910;2024-01-15T00:22:55;2.63;;;0.93;;
82288;SDS011;71889;39.264;-120.910;2024-01-15T00:25:22;2.28;;;1.10;;
82288;SDS011;71889;39.264;-120.910;2024-01-15T00:27:49;1.77;;;0.80;;
82288;SDS011;71889;39.264;-120.910;2024-01-15T00:30:15;1.40;;;0.90;;
82288;SDS011;71889;39.264;-120.910;2024-01-15T00:32:42;1.63;;;0.80;;
82288;SDS011;71889;39.264;-120.910;2024-01-15T00:35:09;1.30;;;0.60;;
82288;SDS011;71889;39.264;-120.910;2024-01-15T00:37:36;1.75;;;0.70;;
82288;SDS011;71889;39.264;-120.910;2024-01-15T00:40:03;1.52;;;0.70;;
82288;SDS011;71889;39.264;-120.910;2024-01-15T00:42:30;1.52;;;0.80;;
82288;SDS011;71889;39.264;-120.910;2024-01-15T00:44:56;2.65;;;0.90;;
82288;SDS011;71889;39.264;-120.910;2024-01-15T00:47:23;1.30;;;0.70;;
82288;SDS011;71889;39.264;-120.910;2024-01-15T00:49:50;2.15;;;1.05;;
82288;SDS011;71889;39.264;-120.910;2024-01-15T00:52:16;1.30;;;0.82;;
82288;SDS011;71889;39.264;-120.910;2024-01-15T00:54:43;2.35;;;1.00;;
82288;SDS011;71889;39.264;-120.910;2024-01-15T00:57:10;2.38;;;1.10;;
82288;SDS011;71889;39.264;-120.910;2024-01-15T00:59:36;1.38;;;0.70;;
82288;SDS011;71889;39.264;-120.910;2024-01-15T01:02:03;1.85;;;0.88;;
82288;SDS011;71889;39.264;-120.910;2024-01-15T01:04:29;5.25;;;2.58;;
82288;SDS011;71889;39.264;-120.910;2024-01-15T01:06:56;63.55;;;33.35;;
82288;SDS011;71889;39.264;-120.910;2024-01-15T01:09:23;56.00;;;29.95;;
82288;SDS011;71889;39.264;-120.910;2024-01-15T01:11:50;24.55;;;14.15;;
82288;SDS011;71889;39.264;-120.910;2024-01-15T01:14:16;16.88;;;5.53;;
82288;SDS011;71889;39.264;-120.910;2024-01-15T01:16:43;17.98;;;3.05;;
82288;SDS011;71889;39.264;-120.910;2024-01-15T01:19:10;5.55;;;2.67;;
82288;SDS011;71889;39.264;-120.910;2024-01-15T01:21:37;6.22;;;2.70;;
82288;SDS011;71889;39.264;-120.910;2024-01-15T01:24:04;4.35;;;2.25;;
82288;SDS011;71889;39.264;-120.910;2024-01-15T01:26:31;5.38;;;2.40;;
82288;SDS011;71889;39.264;-120.910;2024-01-15T01:28:57;4.18;;;2.10;;
82288;SDS011;71889;39.264;-120.910;2024-01-15T01:31:24;2.80;;;1.30;;
82288;SDS011;71889;39.264;-120.910;2024-01-15T01:33:51;2.22;;;1.10;;
82288;SDS011;71889;39.264;-120.910;2024-01-15T01:36:18;6.38;;;3.00;;
82288;SDS011;71889;39.264;-120.910;2024-01-15T01:38:44;8.13;;;3.60;;
82288;SDS011;71889;39.264;-120.910;2024-01-15T01:41:11;6.85;;;3.88;;
82288;SDS011;71889;39.264;-120.910;2024-01-15T01:43:38;5.88;;;2.97;;
82288;SDS011;71889;39.264;-120.910;2024-01-15T01:46:04;6.65;;;3.55;;
82288;SDS011;71889;39.264;-120.910;2024-01-15T01:48:31;12.32;;;5.35;;
82288;SDS011;71889;39.264;-120.910;2024-01-15T01:50:59;8.68;;;4.38;;
82288;SDS011;71889;39.264;-120.910;2024-01-15T01:53:28;11.32;;;4.95;;
82288;SDS011;71889;39.264;-120.910;2024-01-15T01:55:55;6.15;;;3.53;;
82288;SDS011;71889;39.264;-120.910;2024-01-15T01:58:23;6.80;;;3.35;;
82288;SDS011;71889;39.264;-120.910;2024-01-15T02:00:51;5.72;;;2.65;;
82288;SDS011;71889;39.264;-120.910;2024-01-15T02:03:17;10.25;;;2.15;;
82288;SDS011;71889;39.264;-120.910;2024-01-15T02:05:44;6.80;;;2.63;;
82288;SDS011;71889;39.264;-120.910;2024-01-15T02:08:12;6.28;;;2.78;;
82288;SDS011;71889;39.264;-120.910;2024-01-15T02:10:39;7.78;;;3.60;;
82288;SDS011;71889;39.264;-120.910;2024-01-15T02:13:05;13.07;;;3.00;;
82288;SDS011;71889;39.264;-120.910;2024-01-15T02:15:32;8.18;;;3.35;;
82288;SDS011;71889;39.264;-120.910;2024-01-15T02:18:03;8.50;;;3.55;;
82288;SDS011;71889;39.264;-120.910;2024-01-15T02:20:31;9.98;;;4.20;;
82288;SDS011;71889;39.264;-120.910;2024-01-15T02:23:08;8.13;;;3.30;;
82288;SDS011;71889;39.264;-120.910;2024-01-15T02:25:38;5.55;;;2.28;;
82288;SDS011;71889;39.264;-120.910;2024-01-15T02:28:06;6.38;;;2.42;;
82288;SDS011;71889;39.264;-120.910;2024-01-15T02:30:34;5.57;;;2.13;;
82288;SDS011;71889;39.264;-120.910;2024-01-15T02:33:06;5.05;;;2.42;;
82288;SDS011;71889;39.264;-120.910;2024-01-15T02:35:33;4.80;;;2.78;;
82288;SDS011;71889;39.264;-120.910;2024-01-15T02:38:03;4.70;;;2.55;;
82288;SDS011;71889;39.264;-120.910;2024-01-15T02:40:30;3.90;;;2.13;;
82288;SDS011;71889;39.264;-120.910;2024-01-15T02:42:57;4.88;;;2.53;;
82288;SDS011;71889;39.264;-120.910;2024-01-15T02:45:24;4.65;;;2.70;;
82288;SDS011;71889;39.264;-120.910;2024-01-15T02:47:50;6.35;;;2.95;;
82288;SDS011;71889;39.264;-120.910;2024-01-15T02:50:17;4.70;;;2.53;;
82288;SDS011;71889;39.264;-120.910;2024-01-15T02:52:44;5.07;;;2.70;;
82288;SDS011;71889;39.264;-120.910;2024-01-15T02:55:10;4.03;;;1.80;;
82288;SDS011;71889;39.264;-120.910;2024-01-15T02:57:37;3.47;;;1.73;;
82288;SDS011;71889;39.264;-120.910;2024-01-15T03:00:04;5.95;;;1.80;;
82288;SDS011;71889;39.264;-120.910;2024-01-15T03:02:32;2.78;;;1.65;;
82288;SDS011;71889;39.264;-120.910;2024-01-15T03:04:59;6.35;;;2.53;;
82288;SDS011;71889;39.264;-120.910;2024-01-15T03:07:26;7.78;;;2.70;;
82288;SDS011;71889;39.264;-120.910;2024-01-15T03:09:53;7.18;;;3.92;;
82288;SDS011;71889;39.264;-120.910;2024-01-15T03:12:20;19.75;;;9.00;;
82288;SDS011;71889;39.264;-120.910;2024-01-15T03:14:46;9.55;;;4.78;;
82288;SDS011;71889;39.264;-120.910;2024-01-15T03:17:13;6.32;;;3.45;;
82288;SDS011;71889;39.264;-120.910;2024-01-15T03:19:39;6.32;;;3.83;;
82288;SDS011;71889;39.264;-120.910;2024-01-15T03:22:07;9.60;;;4.28;;
82288;SDS011;71889;39.264;-120.910;2024-01-15T03:24:34;6.63;;;3.95;;
82288;SDS011;71889;39.264;-120.910;2024-01-15T03:27:01;9.45;;;4.97;;
82288;SDS011;71889;39.264;-120.910;2024-01-15T03:29:27;10.73;;;6.10;;
82288;SDS011;71889;39.264;-120.910;2024-01-15T03:31:54;12.98;;;7.07;;
82288;SDS011;71889;39.264;-120.910;2024-01-15T03:34:21;14.77;;;8.00;;
82288;SDS011;71889;39.264;-120.910;2024-01-15T03:36:47;14.25;;;6.40;;
82288;SDS011;71889;39.264;-120.910;2024-01-15T03:39:14;13.10;;;5.38;;
82288;SDS011;71889;39.264;-120.910;2024-01-15T03:41:41;9.77;;;3.63;;
82288;SDS011;71889;39.264;-120.910;2024-01-15T03:44:07;9.07;;;4.93;;
82288;SDS011;71889;39.264;-120.910;2024-01-15T03:46:34;20.83;;;8.10;;
82288;SDS011;71889;39.264;-120.910;2024-01-15T03:49:00;22.02;;;7.45;;
82288;SDS011;71889;39.264;-120.910;2024-01-15T03:51:27;16.67;;;5.97;;
82288;SDS011;71889;39.264;-120.910;2024-01-15T03:53:54;16.60;;;4.05;;
82288;SDS011;71889;39.264;-120.910;2024-01-15T03:56:20;14.60;;;4.45;;
82288;SDS011;71889;39.264;-120.910;2024-01-15T03:58:47;12.82;;;3.70;;
82288;SDS011;71889;39.264;-120.910;2024-01-15T04:01:14;10.80;;;2.10;;
82288;SDS011;71889;39.264;-120.910;2024-01-15T04:03:40;4.18;;;1.67;;
82288;SDS011;71889;39.264;-120.910;2024-01-15T04:06:07;12.55;;;3.08;;
82288;SDS011;71889;39.264;-120.910;2024-01-15T04:08:33;11.13;;;2.30;;
82288;SDS011;71889;39.264;-120.910;2024-01-15T04:11:01;25.80;;;2.47;;
82288;SDS011;71889;39.264;-120.910;2024-01-15T04:13:27;4.80;;;1.40;;
82288;SDS011;71889;39.264;-120.910;2024-01-15T04:15:54;3.92;;;1.60;;
82288;SDS011;71889;39.264;-120.910;2024-01-15T04:18:21;14.57;;;1.40;;
82288;SDS011;71889;39.264;-120.910;2024-01-15T04:20:47;11.68;;;1.05;;
82288;SDS011;71889;39.264;-120.910;2024-01-15T04:23:14;8.68;;;1.23;;
82288;SDS011;71889;39.264;-120.910;2024-01-15T04:25:41;11.27;;;0.88;;
82288;SDS011;71889;39.264;-120.910;2024-01-15T04:28:11;13.70;;;1.55;;
82288;SDS011;71889;39.264;-120.910;2024-01-15T04:30:37;16.23;;;2.80;;
82288;SDS011;71889;39.264;-120.910;2024-01-15T04:33:04;7.55;;;1.20;;
82288;SDS011;71889;39.264;-120.910;2024-01-15T04:35:31;26.30;;;2.33;;
82288;SDS011;71889;39.264;-120.910;2024-01-15T04:37:57;21.38;;;2.42;;
82288;SDS011;71889;39.264;-120.910;2024-01-15T04:40:24;12.05;;;1.90;;
82288;SDS011;71889;39.264;-120.910;2024-01-15T04:42:53;22.98;;;2.42;;
82288;SDS011;71889;39.264;-120.910;2024-01-15T04:45:20;14.27;;;1.88;;
82288;SDS011;71889;39.264;-120.910;2024-01-15T04:47:48;25.17;;;1.67;;
82288;SDS011;71889;39.264;-120.910;2024-01-15T04:50:15;28.27;;;1.48;;
82288;SDS011;71889;39.264;-120.910;2024-01-15T04:52:42;33.03;;;8.63;;
82288;SDS011;71889;39.264;-120.910;2024-01-15T04:55:08;49.10;;;5.72;;
82288;SDS011;71889;39.264;-120.910;2024-01-15T04:57:35;29.48;;;3.55;;
82288;SDS011;71889;39.264;-120.910;2024-01-15T05:00:02;18.08;;;1.48;;
82288;SDS011;71889;39.264;-120.910;2024-01-15T05:02:28;6.43;;;0.90;;
82288;SDS011;71889;39.264;-120.910;2024-01-15T05:04:55;9.63;;;0.70;;
82288;SDS011;71889;39.264;-120.910;2024-01-15T05:07:22;1.67;;;0.57;;
82288;SDS011;71889;39.264;-120.910;2024-01-15T05:09:48;10.52;;;0.77;;
82288;SDS011;71889;39.264;-120.910;2024-01-15T05:12:15;3.13;;;0.50;;
82288;SDS011;71889;39.264;-120.910;2024-01-15T05:14:42;34.15;;;0.98;;
82288;SDS011;71889;39.264;-120.910;2024-01-15T05:17:08;24.58;;;0.95;;
82288;SDS011;71889;39.264;-120.910;2024-01-15T05:19:35;32.60;;;1.17;;
82288;SDS011;71889;39.264;-120.910;2024-01-15T05:22:02;13.30;;;0.73;;
82288;SDS011;71889;39.264;-120.910;2024-01-15T05:24:28;26.63;;;0.98;;
82288;SDS011;71889;39.264;-120.910;2024-01-15T05:26:55;14.57;;;0.73;;
82288;SDS011;71889;39.264;-120.910;2024-01-15T05:29:21;20.60;;;1.02;;
82288;SDS011;71889;39.264;-120.910;2024-01-15T05:31:48;11.05;;;0.68;;
82288;SDS011;71889;39.264;-120.910;2024-01-15T05:34:15;25.67;;;1.00;;
82288;SDS011;71889;39.264;-120.910;2024-01-15T05:36:41;12.80;;;0.65;;
82288;SDS011;71889;39.264;-120.910;2024-01-15T05:39:08;20.80;;;0.77;;
82288;SDS011;71889;39.264;-120.910;2024-01-15T05:41:35;56.90;;;1.80;;
82288;SDS011;71889;39.264;-120.910;2024-01-15T05:44:02;34.38;;;1.20;;
82288;SDS011;71889;39.264;-120.910;2024-01-15T05:46:28;17.20;;;0.75;;
82288;SDS011;71889;39.264;-120.910;2024-01-15T05:48:55;50.00;;;2.22;;
82288;SDS011;71889;39.264;-120.910;2024-01-15T05:51:22;35.38;;;1.75;;
82288;SDS011;71889;39.264;-120.910;2024-01-15T05:53:48;18.85;;;1.10;;
82288;SDS011;71889;39.264;-120.910;2024-01-15T05:56:17;13.50;;;0.85;;
82288;SDS011;71889;39.264;-120.910;2024-01-15T05:58:43;5.35;;;0.63;;
82288;SDS011;71889;39.264;-120.910;2024-01-15T06:01:10;0.75;;;0.35;;
82288;SDS011;71889;39.264;-120.910;2024-01-15T06:03:37;10.95;;;0.55;;
82288;SDS011;71889;39.264;-120.910;2024-01-15T06:06:03;5.43;;;0.30;;
82288;SDS011;71889;39.264;-120.910;2024-01-15T06:08:30;24.50;;;0.90;;
82288;SDS011;71889;39.264;-120.910;2024-01-15T06:10:57;14.68;;;0.80;;
82288;SDS011;71889;39.264;-120.910;2024-01-15T06:13:24;22.02;;;0.88;;
82288;SDS011;71889;39.264;-120.910;2024-01-15T06:15:50;15.30;;;0.90;;
82288;SDS011;71889;39.264;-120.910;2024-01-15T06:18:17;17.77;;;0.93;;
82288;SDS011;71889;39.264;-120.910;2024-01-15T06:20:44;10.15;;;0.75;;
82288;SDS011;71889;39.264;-120.910;2024-01-15T06:23:10;24.02;;;0.88;;
82288;SDS011;71889;39.264;-120.910;2024-01-15T06:25:37;5.93;;;0.50;;
82288;SDS011;71889;39.264;-120.910;2024-01-15T06:28:04;0.60;;;0.30;;
82288;SDS011;71889;39.264;-120.910;2024-01-15T06:30:31;5.40;;;2.40;;
82288;SDS011;71889;39.264;-120.910;2024-01-15T06:32:57;8.55;;;2.63;;
82288;SDS011;71889;39.264;-120.910;2024-01-15T06:35:24;20.58;;;8.93;;
82288;SDS011;71889;39.264;-120.910;2024-01-15T06:37:50;13.80;;;5.95;;
82288;SDS011;71889;39.264;-120.910;2024-01-15T06:40:17;14.57;;;7.63;;
82288;SDS011;71889;39.264;-120.910;2024-01-15T06:42:44;15.07;;;6.60;;
82288;SDS011;71889;39.264;-120.910;2024-01-15T06:45:10;27.58;;;8.82;;
82288;SDS011;71889;39.264;-120.910;2024-01-15T06:47:37;11.82;;;3.83;;
82288;SDS011;71889;39.264;-120.910;2024-01-15T06:50:04;3.72;;;1.15;;
82288;SDS011;71889;39.264;-120.910;2024-01-15T06:52:32;9.90;;;1.92;;
82288;SDS011;71889;39.264;-120.910;2024-01-15T06:54:59;6.65;;;1.60;;
82288;SDS011;71889;39.264;-120.910;2024-01-15T06:57:26;10.85;;;1.77;;
82288;SDS011;71889;39.264;-120.910;2024-01-15T06:59:52;4.45;;;2.28;;
82288;SDS011;71889;39.264;-120.910;2024-01-15T07:02:19;8.57;;;2.00;;
82288;SDS011;71889;39.264;-120.910;2024-01-15T07:04:46;6.47;;;2.75;;
82288;SDS011;71889;39.264;-120.910;2024-01-15T07:07:13;6.93;;;1.85;;
82288;SDS011;71889;39.264;-120.910;2024-01-15T07:09:40;5.28;;;1.90;;
82288;SDS011;71889;39.264;-120.910;2024-01-15T07:12:07;3.53;;;1.60;;
82288;SDS011;71889;39.264;-120.910;2024-01-15T07:14:33;1.67;;;1.02;;
82288;SDS011;71889;39.264;-120.910;2024-01-15T07:17:00;7.85;;;1.25;;
82288;SDS011;71889;39.264;-120.910;2024-01-15T07:19:27;3.55;;;1.70;;
82288;SDS011;71889;39.264;-120.910;2024-01-15T07:21:54;8.18;;;2.47;;
82288;SDS011;71889;39.264;-120.910;2024-01-15T07:24:20;4.57;;;1.70;;
82288;SDS011;71889;39.264;-120.910;2024-01-15T07:26:47;5.07;;;2.05;;
82288;SDS011;71889;39.264;-120.910;2024-01-15T07:29:14;4.65;;;1.50;;
82288;SDS011;71889;39.264;-120.910;2024-01-15T07:31:46;8.93;;;2.70;;
82288;SDS011;71889;39.264;-120.910;2024-01-15T07:34:13;8.80;;;2.50;;
82288;SDS011;71889;39.264;-120.910;2024-01-15T07:36:40;10.48;;;2.67;;
82288;SDS011;71889;39.264;-120.910;2024-01-15T07:39:06;3.85;;;2.05;;
82288;SDS011;71889;39.264;-120.910;2024-01-15T07:41:33;3.05;;;1.70;;
82288;SDS011;71889;39.264;-120.910;2024-01-15T07:44:00;5.97;;;1.33;;
82288;SDS011;71889;39.264;-120.910;2024-01-15T07:46:26;10.73;;;1.80;;
82288;SDS011;71889;39.264;-120.910;2024-01-15T07:48:53;5.50;;;1.92;;
82288;SDS011;71889;39.264;-120.910;2024-01-15T07:51:23;8.32;;;2.22;;
82288;SDS011;71889;39.264;-120.910;2024-01-15T07:53:50;6.88;;;1.48;;
82288;SDS011;71889;39.264;-120.910;2024-01-15T07:56:17;3.35;;;1.20;;
82288;SDS011;71889;39.264;-120.910;2024-01-15T07:58:43;12.80;;;1.13;;
82288;SDS011;71889;39.264;-120.910;2024-01-15T08:01:10;1.90;;;1.13;;
82288;SDS011;71889;39.264;-120.910;2024-01-15T08:03:37;10.18;;;1.90;;
82288;SDS011;71889;39.264;-120.910;2024-01-15T08:06:04;8.57;;;1.88;;
82288;SDS011;71889;39.264;-120.910;2024-01-15T08:08:31;13.88;;;2.30;;
82288;SDS011;71889;39.264;-120.910;2024-01-15T08:10:58;39.10;;;3.70;;
82288;SDS011;71889;39.264;-120.910;2024-01-15T08:13:26;30.98;;;2.88;;
82288;SDS011;71889;39.264;-120.910;2024-01-15T08:15:53;5.30;;;2.10;;
82288;SDS011;71889;39.264;-120.910;2024-01-15T08:18:20;40.47;;;4.53;;
82288;SDS011;71889;39.264;-120.910;2024-01-15T08:20:47;30.42;;;5.43;;
82288;SDS011;71889;39.264;-120.910;2024-01-15T08:23:14;33.17;;;4.85;;
82288;SDS011;71889;39.264;-120.910;2024-01-15T08:25:40;25.30;;;3.47;;
82288;SDS011;71889;39.264;-120.910;2024-01-15T08:28:07;10.48;;;2.80;;
82288;SDS011;71889;39.264;-120.910;2024-01-15T08:30:34;7.13;;;2.50;;
82288;SDS011;71889;39.264;-120.910;2024-01-15T08:33:00;12.05;;;1.63;;
82288;SDS011;71889;39.264;-120.910;2024-01-15T08:35:27;2.88;;;0.85;;
82288;SDS011;71889;39.264;-120.910;2024-01-15T08:37:54;2.03;;;0.50;;
82288;SDS011;71889;39.264;-120.910;2024-01-15T08:40:20;1.20;;;0.50;;
82288;SDS011;71889;39.264;-120.910;2024-01-15T08:42:47;0.75;;;0.30;;
82288;SDS011;71889;39.264;-120.910;2024-01-15T08:45:14;7.03;;;1.17;;
82288;SDS011;71889;39.264;-120.910;2024-01-15T08:47:41;3.58;;;0.95;;
82288;SDS011;71889;39.264;-120.910;2024-01-15T08:50:08;1.60;;;0.65;;
82288;SDS011;71889;39.264;-120.910;2024-01-15T08:52:35;4.15;;;1.52;;
82288;SDS011;71889;39.264;-120.910;2024-01-15T08:55:02;7.32;;;3.35;;
82288;SDS011;71889;39.264;-120.910;2024-01-15T08:57:29;16.77;;;5.90;;
82288;SDS011;71889;39.264;-120.910;2024-01-15T08:59:56;31.95;;;8.15;;
82288;SDS011;71889;39.264;-120.910;2024-01-15T09:02:24;23.55;;;8.35;;
82288;SDS011;71889;39.264;-120.910;2024-01-15T09:04:50;26.85;;;7.57;;
82288;SDS011;71889;39.264;-120.910;2024-01-15T09:07:17;24.80;;;7.03;;
82288;SDS011;71889;39.264;-120.910;2024-01-15T09:09:44;19.60;;;7.03;;
82288;SDS011;71889;39.264;-120.910;2024-01-15T09:12:11;22.63;;;8.38;;
82288;SDS011;71889;39.264;-120.910;2024-01-15T09:14:40;60.15;;;16.02;;
82288;SDS011;71889;39.264;-120.910;2024-01-15T09:17:07;85.57;;;22.08;;
82288;SDS011;71889;39.264;-120.910;2024-01-15T09:19:34;76.40;;;17.05;;
82288;SDS011;71889;39.264;-120.910;2024-01-15T09:22:00;72.38;;;15.02;;
82288;SDS011;71889;39.264;-120.910;2024-01-15T09:24:27;69.97;;;13.40;;
82288;SDS011;71889;39.264;-120.910;2024-01-15T09:26:54;57.45;;;14.00;;
82288;SDS011;71889;39.264;-120.910;2024-01-15T09:29:21;32.70;;;7.13;;
82288;SDS011;71889;39.264;-120.910;2024-01-15T09:31:49;10.68;;;2.60;;
82288;SDS011;71889;39.264;-120.910;2024-01-15T09:34:16;3.08;;;1.02;;
82288;SDS011;71889;39.264;-120.910;2024-01-15T09:36:42;8.43;;;2.50;;
82288;SDS011;71889;39.264;-120.910;2024-01-15T09:39:09;19.20;;;3.78;;
82288;SDS011;71889;39.264;-120.910;2024-01-15T09:41:37;21.23;;;5.53;;
82288;SDS011;71889;39.264;-120.910;2024-01-15T09:44:03;45.30;;;11.38;;
82288;SDS011;71889;39.264;-120.910;2024-01-15T09:46:31;64.07;;;17.50;;
82288;SDS011;71889;39.264;-120.910;2024-01-15T09:48:58;52.53;;;13.63;;
82288;SDS011;71889;39.264;-120.910;2024-01-15T09:51:26;26.55;;;7.22;;
82288;SDS011;71889;39.264;-120.910;2024-01-15T09:53:52;10.15;;;3.15;;
82288;SDS011;71889;39.264;-120.910;2024-01-15T09:56:20;2.10;;;0.80;;
82288;SDS011;71889;39.264;-120.910;2024-01-15T09:58:47;4.45;;;1.08;;
82288;SDS011;71889;39.264;-120.910;2024-01-15T10:01:14;6.60;;;2.10;;
82288;SDS011;71889;39.264;-120.910;2024-01-15T10:03:41;8.82;;;3.80;;
82288;SDS011;71889;39.264;-120.910;2024-01-15T10:06:08;9.68;;;3.78;;
82288;SDS011;71889;39.264;-120.910;2024-01-15T10:08:36;11.20;;;5.10;;
82288;SDS011;71889;39.264;-120.910;2024-01-15T10:11:04;11.32;;;5.43;;
82288;SDS011;71889;39.264;-120.910;2024-01-15T10:13:31;10.13;;;3.75;;
82288;SDS011;71889;39.264;-120.910;2024-01-15T10:15:58;7.20;;;3.13;;
82288;SDS011;71889;39.264;-120.910;2024-01-15T10:18:25;8.82;;;3.72;;
82288;SDS011;71889;39.264;-120.910;2024-01-15T10:20:52;13.82;;;4.60;;
82288;SDS011;71889;39.264;-120.910;2024-01-15T10:23:19;5.53;;;2.33;;
82288;SDS011;71889;39.264;-120.910;2024-01-15T10:25:46;3.92;;;1.58;;
82288;SDS011;71889;39.264;-120.910;2024-01-15T10:28:13;12.05;;;3.70;;
82288;SDS011;71889;39.264;-120.910;2024-01-15T10:30:40;11.98;;;3.22;;
82288;SDS011;71889;39.264;-120.910;2024-01-15T10:33:06;12.13;;;3.47;;
82288;SDS011;71889;39.264;-120.910;2024-01-15T10:35:33;13.15;;;3.40;;
82288;SDS011;71889;39.264;-120.910;2024-01-15T10:38:00;7.70;;;2.45;;
82288;SDS011;71889;39.264;-120.910;2024-01-15T10:40:28;8.52;;;1.52;;
82288;SDS011;71889;39.264;-120.910;2024-01-15T10:42:55;4.65;;;1.23;;
82288;SDS011;71889;39.264;-120.910;2024-01-15T10:45:21;2.45;;;1.00;;
82288;SDS011;71889;39.264;-120.910;2024-01-15T10:47:48;1.90;;;0.80;;
82288;SDS011;71889;39.264;-120.910;2024-01-15T10:50:15;1.67;;;0.50;;
82288;SDS011;71889;39.264;-120.910;2024-01-15T10:52:42;1.88;;;0.60;;
82288;SDS011;71889;39.264;-120.910;2024-01-15T10:55:10;17.73;;;3.35;;
82288;SDS011;71889;39.264;-120.910;2024-01-15T10:57:37;30.23;;;5.28;;
82288;SDS011;71889;39.264;-120.910;2024-01-15T11:00:04;45.30;;;7.68;;
82288;SDS011;71889;39.264;-120.910;2024-01-15T11:02:32;42.67;;;8.25;;
82288;SDS011;71889;39.264;-120.910;2024-01-15T11:04:59;27.63;;;6.38;;
82288;SDS011;71889;39.264;-120.910;2024-01-15T11:07:26;33.05;;;5.75;;
82288;SDS011;71889;39.264;-120.910;2024-01-15T11:09:53;35.28;;;6.55;;
82288;SDS011;71889;39.264;-120.910;2024-01-15T11:12:20;31.67;;;6.80;;
82288;SDS011;71889;39.264;-120.910;2024-01-15T11:14:47;35.55;;;6.63;;
82288;SDS011;71889;39.264;-120.910;2024-01-15T11:17:15;33.83;;;7.00;;
82288;SDS011;71889;39.264;-120.910;2024-01-15T11:24:53;23.98;;;4.70;;
82288;SDS011;71889;39.264;-120.910;2024-01-15T11:27:39;19.83;;;3.63;;
82288;SDS011;71889;39.264;-120.910;2024-01-15T11:30:09;24.83;;;5.95;;
82288;SDS011;71889;39.264;-120.910;2024-01-15T11:32:36;31.15;;;6.65;;
82288;SDS011;71889;39.264;-120.910;2024-01-15T11:42:58;12.98;;;3.67;;
82288;SDS011;71889;39.264;-120.910;2024-01-15T11:45:25;13.40;;;3.17;;
82288;SDS011;71889;39.264;-120.910;2024-01-15T11:50:30;8.13;;;1.30;;
82288;SDS011;71889;39.264;-120.910;2024-01-15T11:53:01;4.00;;;1.35;;
82288;SDS011;71889;39.264;-120.910;2024-01-15T11:55:35;5.57;;;1.33;;
82288;SDS011;71889;39.264;-120.910;2024-01-15T11:58:02;3.33;;;1.25;;
82288;SDS011;71889;39.264;-120.910;2024-01-15T12:00:35;2.47;;;1.33;;
82288;SDS011;71889;39.264;-120.910;2024-01-15T12:03:06;1.52;;;0.60;;
82288;SDS011;71889;39.264;-120.910;2024-01-15T12:05:32;1.33;;;0.47;;
82288;SDS011;71889;39.264;-120.910;2024-01-15T12:07:59;2.03;;;0.35;;
82288;SDS011;71889;39.264;-120.910;2024-01-15T12:10:26;1.67;;;0.40;;
82288;SDS011;71889;39.264;-120.910;2024-01-15T12:15:26;1.52;;;0.45;;
82288;SDS011;71889;39.264;-120.910;2024-01-15T12:17:54;4.93;;;0.73;;
82288;SDS011;71889;39.264;-120.910;2024-01-15T12:20:23;4.32;;;1.08;;
82288;SDS011;71889;39.264;-120.910;2024-01-15T12:22:50;11.40;;;3.58;;
82288;SDS011;71889;39.264;-120.910;2024-01-15T12:25:17;25.42;;;7.80;;
82288;SDS011;71889;39.264;-120.910;2024-01-15T12:27:44;36.00;;;10.57;;
82288;SDS011;71889;39.264;-120.910;2024-01-15T12:30:13;45.15;;;11.95;;
82288;SDS011;71889;39.264;-120.910;2024-01-15T12:32:44;35.85;;;8.75;;
82288;SDS011;71889;39.264;-120.910;2024-01-15T12:35:12;33.40;;;9.02;;
82288;SDS011;71889;39.264;-120.910;2024-01-15T12:37:39;24.50;;;7.80;;
82288;SDS011;71889;39.264;-120.910;2024-01-15T12:40:06;26.38;;;6.20;;
82288;SDS011;71889;39.264;-120.910;2024-01-15T12:42:41;16.63;;;4.03;;
82288;SDS011;71889;39.264;-120.910;2024-01-15T12:45:08;19.50;;;4.95;;
82288;SDS011;71889;39.264;-120.910;2024-01-15T12:47:36;19.60;;;4.28;;
82288;SDS011;71889;39.264;-120.910;2024-01-15T12:50:05;9.35;;;2.97;;
82288;SDS011;71889;39.264;-120.910;2024-01-15T12:52:33;9.35;;;2.42;;
82288;SDS011;71889;39.264;-120.910;2024-01-15T12:55:00;5.45;;;1.67;;
82288;SDS011;71889;39.264;-120.910;2024-01-15T12:57:27;4.78;;;1.30;;
82288;SDS011;71889;39.264;-120.910;2024-01-15T12:59:54;3.17;;;1.42;;
82288;SDS011;71889;39.264;-120.910;2024-01-15T13:02:20;11.57;;;2.50;;
82288;SDS011;71889;39.264;-120.910;2024-01-15T13:04:47;12.35;;;2.70;;
82288;SDS011;71889;39.264;-120.910;2024-01-15T13:07:14;19.33;;;4.38;;
82288;SDS011;71889;39.264;-120.910;2024-01-15T13:09:40;18.23;;;5.45;;
82288;SDS011;71889;39.264;-120.910;2024-01-15T13:12:07;30.60;;;7.30;;
82288;SDS011;71889;39.264;-120.910;2024-01-15T13:14:34;22.90;;;5.22;;
82288;SDS011;71889;39.264;-120.910;2024-01-15T13:17:01;14.05;;;3.30;;
82288;SDS011;71889;39.264;-120.910;2024-01-15T13:19:28;13.18;;;2.70;;
82288;SDS011;71889;39.264;-120.910;2024-01-15T13:21:55;11.63;;;2.28;;
82288;SDS011;71889;39.264;-120.910;2024-01-15T13:24:24;3.15;;;1.08;;
82288;SDS011;71889;39.264;-120.910;2024-01-15T13:26:50;3.30;;;0.85;;
82288;SDS011;71889;39.264;-120.910;2024-01-15T13:29:17;4.65;;;0.88;;
82288;SDS011;71889;39.264;-120.910;2024-01-15T13:31:45;2.65;;;0.75;;
82288;SDS011;71889;39.264;-120.910;2024-01-15T13:34:11;3.08;;;0.80;;
82288;SDS011;71889;39.264;-120.910;2024-01-15T13:36:39;2.08;;;0.60;;
82288;SDS011;71889;39.264;-120.910;2024-01-15T13:39:06;8.23;;;1.65;;
82288;SDS011;71889;39.264;-120.910;2024-01-15T13:41:36;24.40;;;3.95;;
82288;SDS011;71889;39.264;-120.910;2024-01-15T13:44:02;14.88;;;3.13;;
82288;SDS011;71889;39.264;-120.910;2024-01-15T13:46:29;14.82;;;3.58;;
82288;SDS011;71889;39.264;-120.910;2024-01-15T13:48:56;4.78;;;1.73;;
82288;SDS011;71889;39.264;-120.910;2024-01-15T13:51:23;4.65;;;1.30;;
82288;SDS011;71889;39.264;-120.910;2024-01-15T13:53:50;4.28;;;1.33;;
82288;SDS011;71889;39.264;-120.910;2024-01-15T13:56:18;2.17;;;0.93;;
82288;SDS011;71889;39.264;-120.910;2024-01-15T13:58:44;3.13;;;0.90;;
82288;SDS011;71889;39.264;-120.910;2024-01-15T14:01:13;1.30;;;0.50;;
82288;SDS011;71889;39.264;-120.910;2024-01-15T14:03:40;2.13;;;0.52;;
82288;SDS011;71889;39.264;-120.910;2024-01-15T14:06:06;5.65;;;1.70;;
82288;SDS011;71889;39.264;-120.910;2024-01-15T14:08:37;24.90;;;6.85;;
82288;SDS011;71889;39.264;-120.910;2024-01-15T14:11:03;29.33;;;9.10;;
82288;SDS011;71889;39.264;-120.910;2024-01-15T14:13:32;31.45;;;10.65;;
82288;SDS011;71889;39.264;-120.910;2024-01-15T14:15:59;24.33;;;8.35;;
82288;SDS011;71889;39.264;-120.910;2024-01-15T14:18:26;34.15;;;10.88;;
82288;SDS011;71889;39.264;-120.910;2024-01-15T14:20:53;28.02;;;10.00;;